Time;durP1;ratioP1;P1;durP2;ratioP2;P2;SDS_P1;SDS_P2;PMS_P1;PMS_P2;Temp;Humidity;BMP_temperature;BMP_pressure;BME280_temperature;BME280_humidity;BME280_pressure;Samples;Min_cycle;Max_cycle;Signal;HPM_P1;HPM_P2
2023/11/27 00:02:37;;;;;;;3.17;1.87;;;;;0.70;96374.00;;;;5010003;28;20459;-73
2023/11/27 00:05:27;;;;;;;3.43;2.07;;;;;0.40;96371.00;;;;5011974;28;20440;-73
2023/11/27 00:08:16;;;;;;;5.77;3.33;;;;;0.30;96371.00;;;;5009792;28;20797;-73
2023/11/27 00:11:06;;;;;;;6.77;3.57;;;;;0.50;96366.00;;;;5006153;28;20446;-73
2023/11/27 00:13:55;;;;;;;3.40;1.97;;;;;0.70;96368.00;;;;5006231;28;20445;-73
2023/11/27 00:16:44;;;;;;;4.00;2.23;;;;;0.70;96364.00;;;;5006930;28;20974;-72
2023/11/27 00:19:35;;;;;;;3.50;2.03;;;;;0.40;96363.00;;;;5008913;28;20417;-73
2023/11/27 00:22:24;;;;;;;2.67;1.67;;;;;0.20;96372.00;;;;5002256;28;20429;-72
2023/11/27 00:25:13;;;;;;;5.20;2.97;;;;;0.40;96366.00;;;;5008996;28;20442;-73
2023/11/27 00:28:02;;;;;;;5.47;3.07;;;;;0.20;96378.00;;;;5012298;28;20445;-72
2023/11/27 00:30:52;;;;;;;3.73;2.13;;;;;0.50;96377.00;;;;5011349;28;20432;-73
2023/11/27 00:33:41;;;;;;;3.13;1.90;;;;;0.30;96362.00;;;;5006404;28;20468;-73
2023/11/27 00:36:32;;;;;;;3.47;2.13;;;;;0.10;96374.00;;;;5005145;28;20469;-72
2023/11/27 00:39:21;;;;;;;3.57;1.97;;;;;-0.20;96373.00;;;;5006289;28;20436;-73
2023/11/27 00:42:10;;;;;;;5.27;3.00;;;;;0.00;96379.00;;;;5001786;28;20445;-73
2023/11/27 00:44:59;;;;;;;4.60;2.47;;;;;0.10;96363.00;;;;5009981;28;20456;-73
2023/11/27 00:47:48;;;;;;;3.10;2.00;;;;;0.10;96358.00;;;;5008783;28;20429;-72
2023/11/27 00:50:38;;;;;;;2.00;1.40;;;;;0.30;96359.00;;;;5004232;28;20452;-74
2023/11/27 00:53:28;;;;;;;4.00;2.27;;;;;0.60;96356.00;;;;5002201;28;20428;-73
2023/11/27 00:56:17;;;;;;;5.90;3.27;;;;;0.30;96355.00;;;;5002606;28;20997;-73
2023/11/27 00:59:06;;;;;;;5.73;3.10;;;;;0.10;96363.00;;;;5008755;28;20430;-73
2023/11/27 01:01:55;;;;;;;2.70;1.70;;;;;0.00;96352.00;;;;5000448;28;20433;-73
2023/11/27 01:04:44;;;;;;;2.63;1.77;;;;;-0.60;96353.00;;;;5008304;28;20445;-73
2023/11/27 01:07:34;;;;;;;4.00;2.33;;;;;-0.50;96348.00;;;;5000903;28;20958;-75
2023/11/27 01:10:24;;;;;;;2.87;1.80;;;;;-0.40;96326.00;;;;5007068;28;20424;-73
2023/11/27 01:13:14;;;;;;;5.80;3.33;;;;;-0.10;96340.00;;;;5007602;28;20452;-73
2023/11/27 01:16:03;;;;;;;5.40;3.03;;;;;0.10;96327.00;;;;5008948;28;20473;-73
2023/11/27 01:18:52;;;;;;;3.23;1.80;;;;;0.00;96329.00;;;;5007072;28;20443;-74
2023/11/27 01:21:41;;;;;;;5.87;3.07;;;;;-0.10;96340.00;;;;5004248;28;20448;-73
2023/11/27 01:24:31;;;;;;;5.17;2.77;;;;;0.30;96335.00;;;;5005969;28;20464;-73
2023/11/27 01:27:21;;;;;;;3.43;2.20;;;;;0.40;96332.00;;;;5006994;28;20436;-73
2023/11/27 01:30:11;;;;;;;5.87;3.33;;;;;0.10;96324.00;;;;5001962;28;20460;-74
2023/11/27 01:33:00;;;;;;;3.67;2.20;;;;;-0.80;96310.00;;;;5004820;28;20448;-74
2023/11/27 01:35:49;;;;;;;3.77;2.13;;;;;-0.40;96305.00;;;;5005801;28;20440;-73
2023/11/27 01:38:39;;;;;;;6.23;3.37;;;;;0.10;96316.00;;;;5004234;28;20421;-74
2023/11/27 01:41:28;;;;;;;5.03;2.63;;;;;0.00;96299.00;;;;5002903;28;20429;-73
2023/11/27 01:44:18;;;;;;;6.83;3.57;;;;;0.20;96310.00;;;;5006149;28;20445;-73
2023/11/27 01:47:08;;;;;;;6.47;3.17;;;;;0.00;96293.00;;;;5012041;28;20429;-74
2023/11/27 01:49:57;;;;;;;5.03;2.70;;;;;-0.20;96306.00;;;;5011926;28;20413;-73
2023/11/27 01:52:47;;;;;;;3.63;2.10;;;;;-0.90;96297.00;;;;5011926;28;20835;-73
2023/11/27 01:55:37;;;;;;;2.37;1.60;;;;;-1.20;96293.00;;;;5011118;28;20432;-72
2023/11/27 01:58:26;;;;;;;5.03;2.87;;;;;-0.80;96297.00;;;;5006122;28;20436;-72
2023/11/27 02:01:17;;;;;;;5.97;3.37;;;;;-0.40;96307.00;;;;5011653;28;20435;-73
2023/11/27 02:04:07;;;;;;;4.70;2.70;;;;;-0.10;96305.00;;;;5011764;28;20456;-72
2023/11/27 02:06:56;;;;;;;3.03;1.90;;;;;0.00;96309.00;;;;5010804;28;20965;-73
2023/11/27 02:09:45;;;;;;;3.93;2.27;;;;;0.20;96293.00;;;;5004677;28;20946;-73
2023/11/27 02:12:34;;;;;;;3.43;2.07;;;;;0.40;96292.00;;;;5012186;28;20444;-72
2023/11/27 02:15:23;;;;;;;3.20;1.97;;;;;0.40;96282.00;;;;5001114;28;20449;-73
2023/11/27 02:18:14;;;;;;;6.33;3.57;;;;;-0.60;96276.00;;;;5009628;28;20477;-72
2023/11/27 02:21:03;;;;;;;2.67;1.53;;;;;-0.50;96272.00;;;;5010911;28;20429;-72
2023/11/27 02:23:54;;;;;;;3.73;2.20;;;;;-0.10;96277.00;;;;5011112;28;20846;-72
2023/11/27 02:26:43;;;;;;;4.20;2.30;;;;;-0.30;96266.00;;;;5006482;28;20448;-72
2023/11/27 02:29:32;;;;;;;2.40;1.53;;;;;-1.20;96248.00;;;;5011443;28;20433;-72
2023/11/27 02:32:22;;;;;;;2.87;1.70;;;;;-0.60;96256.00;;;;5010040;28;20448;-73
2023/11/27 02:35:11;;;;;;;6.97;3.83;;;;;-1.20;96247.00;;;;5003087;28;20461;-71
2023/11/27 02:38:01;;;;;;;3.23;1.93;;;;;-0.60;96247.00;;;;5009891;28;20473;-72
2023/11/27 02:40:51;;;;;;;4.03;2.37;;;;;-0.40;96254.00;;;;5010179;28;20432;-74
2023/11/27 02:43:41;;;;;;;3.50;2.07;;;;;-0.40;96249.00;;;;5006569;28;20460;-74
2023/11/27 02:46:30;;;;;;;4.50;2.57;;;;;0.00;96247.00;;;;5005232;28;20425;-73
2023/11/27 02:49:19;;;;;;;4.03;2.37;;;;;-0.40;96233.00;;;;5009471;28;20440;-72
2023/11/27 02:52:08;;;;;;;5.57;2.87;;;;;-0.40;96234.00;;;;5005972;28;20417;-73
2023/11/27 02:54:57;;;;;;;5.43;2.83;;;;;-0.50;96238.00;;;;5007789;28;20467;-72
2023/11/27 02:57:48;;;;;;;3.53;2.10;;;;;-0.10;96242.00;;;;5010404;28;20464;-73
2023/11/27 03:00:37;;;;;;;3.07;1.97;;;;;-0.60;96244.00;;;;5002123;28;20425;-72
2023/11/27 03:03:26;;;;;;;4.17;2.43;;;;;-0.60;96235.00;;;;5006210;28;20433;-73
2023/11/27 03:06:15;;;;;;;5.73;3.03;;;;;-0.10;96233.00;;;;5018948;28;20444;-73
2023/11/27 03:09:05;;;;;;;3.33;1.97;;;;;-0.70;96231.00;;;;5009730;28;20808;-73
2023/11/27 03:11:54;;;;;;;3.93;2.20;;;;;-1.00;96220.00;;;;5010493;28;20437;-73
2023/11/27 03:14:44;;;;;;;4.47;2.50;;;;;-0.80;96212.00;;;;5007087;28;20449;-73
2023/11/27 03:17:34;;;;;;;4.03;2.23;;;;;-1.10;96221.00;;;;5005299;28;20468;-73
2023/11/27 03:20:23;;;;;;;3.87;2.30;;;;;-1.30;96211.00;;;;5010905;28;20421;-71
2023/11/27 03:23:13;;;;;;;6.60;3.57;;;;;-0.80;96220.00;;;;5010188;28;20425;-74
2023/11/27 03:26:02;;;;;;;3.50;2.10;;;;;-0.30;96228.00;;;;5010625;28;20452;-75
2023/11/27 03:28:51;;;;;;;4.73;2.53;;;;;-0.20;96229.00;;;;5011699;28;20440;-72
2023/11/27 03:31:42;;;;;;;6.20;3.23;;;;;0.10;96241.00;;;;5004419;28;20433;-73
2023/11/27 03:34:31;;;;;;;2.30;1.53;;;;;0.20;96250.00;;;;5011260;28;20461;-73
2023/11/27 03:37:20;;;;;;;3.43;2.10;;;;;0.30;96227.00;;;;5007899;28;20584;-73
2023/11/27 03:40:10;;;;;;;7.40;3.77;;;;;0.40;96246.00;;;;5007392;28;20824;-72
2023/11/27 03:42:59;;;;;;;3.83;2.20;;;;;0.30;96232.00;;;;5009413;28;20425;-73
2023/11/27 03:45:48;;;;;;;3.43;2.07;;;;;0.20;96215.00;;;;5010872;28;20429;-72
2023/11/27 03:48:38;;;;;;;6.83;3.33;;;;;-0.40;96221.00;;;;5003855;28;20414;-73
2023/11/27 03:51:27;;;;;;;5.63;2.90;;;;;0.20;96222.00;;;;5010586;28;20435;-73
2023/11/27 03:54:17;;;;;;;7.63;4.03;;;;;0.10;96220.00;;;;5006772;28;20907;-74
2023/11/27 03:57:06;;;;;;;5.47;2.80;;;;;-0.10;96213.00;;;;5011239;28;20440;-72
2023/11/27 03:59:55;;;;;;;5.27;2.80;;;;;-0.10;96228.00;;;;5010833;28;20436;-73
2023/11/27 04:02:46;;;;;;;3.97;2.23;;;;;0.30;96230.00;;;;5009830;28;20811;-73
2023/11/27 04:05:36;;;;;;;3.97;2.30;;;;;0.20;96227.00;;;;5005106;28;20414;-73
2023/11/27 04:08:26;;;;;;;5.10;2.67;;;;;-0.10;96228.00;;;;5009171;28;20421;-71
2023/11/27 04:11:15;;;;;;;5.13;3.03;;;;;-0.30;96219.00;;;;5009876;28;20433;-71
2023/11/27 04:14:04;;;;;;;4.00;2.37;;;;;-0.60;96208.00;;;;5011067;28;20984;-70
2023/11/27 04:16:53;;;;;;;3.57;2.23;;;;;0.20;96220.00;;;;5002123;28;20426;-69
2023/11/27 04:19:42;;;;;;;3.90;2.30;;;;;0.40;96217.00;;;;5004653;28;20808;-70
2023/11/27 04:22:33;;;;;;;3.43;1.93;;;;;-0.30;96204.00;;;;5000174;28;20820;-71
2023/11/27 04:25:22;;;;;;;2.67;1.70;;;;;-0.50;96206.00;;;;4995349;28;20448;-71
2023/11/27 04:28:11;;;;;;;4.70;2.70;;;;;-0.10;96196.00;;;;5011669;28;20414;-70
2023/11/27 04:31:00;;;;;;;3.17;1.87;;;;;0.30;96202.00;;;;5009382;28;20440;-71
2023/11/27 04:33:49;;;;;;;2.90;1.83;;;;;0.00;96198.00;;;;4997980;28;20462;-69
2023/11/27 04:36:39;;;;;;;3.73;2.10;;;;;-0.20;96191.00;;;;5003757;28;20433;-71
2023/11/27 04:39:29;;;;;;;3.80;2.20;;;;;-0.20;96192.00;;;;5002451;28;20475;-70
2023/11/27 04:42:18;;;;;;;6.23;3.40;;;;;0.50;96210.00;;;;5008964;28;20437;-71
2023/11/27 04:45:08;;;;;;;7.73;3.83;;;;;0.60;96203.00;;;;5007474;28;20456;-70
2023/11/27 04:47:57;;;;;;;3.93;2.17;;;;;0.50;96198.00;;;;5008647;28;20421;-69
2023/11/27 04:50:47;;;;;;;4.67;2.30;;;;;0.70;96199.00;;;;5007680;28;20946;-71
2023/11/27 04:53:36;;;;;;;5.13;2.53;;;;;0.90;96196.00;;;;5003483;28;20445;-70
2023/11/27 04:56:26;;;;;;;6.70;3.03;;;;;0.60;96195.00;;;;5007794;28;20426;-71
2023/11/27 04:59:15;;;;;;;7.57;3.67;;;;;0.60;96187.00;;;;5007219;28;20469;-70
2023/11/27 05:02:05;;;;;;;6.63;2.90;;;;;0.50;96175.00;;;;5006013;28;20430;-70
2023/11/27 05:04:54;;;;;;;7.53;3.37;;;;;0.80;96188.00;;;;5007342;28;20469;-69
2023/11/27 05:07:43;;;;;;;5.43;2.47;;;;;0.60;96182.00;;;;5004605;28;20422;-71
2023/11/27 05:10:38;;;;;;;4.30;2.33;;;;;0.30;96175.00;;;;4992064;28;20449;-72
2023/11/27 05:13:29;;;;;;;3.60;2.10;;;;;0.50;96183.00;;;;5000910;28;20450;-71
2023/11/27 05:16:18;;;;;;;5.47;2.83;;;;;0.40;96171.00;;;;5007957;28;20428;-70
2023/11/27 05:19:07;;;;;;;3.63;2.03;;;;;0.40;96181.00;;;;5006423;28;20476;-72
2023/11/27 05:21:56;;;;;;;4.13;2.33;;;;;0.20;96180.00;;;;5000157;28;20470;-72
2023/11/27 05:24:45;;;;;;;4.77;2.47;;;;;0.10;96178.00;;;;5004977;28;20441;-72
2023/11/27 05:27:35;;;;;;;5.40;2.53;;;;;0.00;96191.00;;;;5002936;28;20915;-71
2023/11/27 05:30:25;;;;;;;5.93;2.60;;;;;-0.10;96185.00;;;;5007354;28;20437;-71
2023/11/27 05:33:14;;;;;;;9.30;4.03;;;;;-0.10;96177.00;;;;5003494;28;20441;-70
2023/11/27 05:36:04;;;;;;;8.40;3.50;;;;;0.60;96185.00;;;;5005137;28;20593;-71
2023/11/27 05:38:53;;;;;;;10.27;4.23;;;;;0.60;96184.00;;;;5002400;28;20472;-69
2023/11/27 05:41:42;;;;;;;25.50;9.47;;;;;0.40;96195.00;;;;4997713;28;20444;-69
2023/11/27 05:44:32;;;;;;;8.93;3.67;;;;;0.70;96188.00;;;;5001315;28;20476;-70
2023/11/27 05:47:22;;;;;;;10.83;4.60;;;;;0.30;96181.00;;;;5004071;28;20425;-71
2023/11/27 05:50:13;;;;;;;8.50;3.50;;;;;0.50;96193.00;;;;5007394;28;20686;-70
2023/11/27 05:53:03;;;;;;;8.10;3.43;;;;;0.50;96180.00;;;;5006199;28;20421;-71
2023/11/27 05:55:52;;;;;;;8.70;3.53;;;;;0.60;96184.00;;;;5001732;28;20442;-70
2023/11/27 05:58:41;;;;;;;9.33;4.00;;;;;0.70;96191.00;;;;5003212;28;20469;-70
2023/11/27 06:01:30;;;;;;;8.83;3.60;;;;;0.20;96183.00;;;;5000893;28;20843;-72
2023/11/27 06:04:21;;;;;;;8.37;3.60;;;;;0.10;96183.00;;;;5004193;28;20454;-71
2023/11/27 06:07:10;;;;;;;12.37;5.50;;;;;0.30;96183.00;;;;5005939;28;20444;-71
2023/11/27 06:09:59;;;;;;;7.80;3.37;;;;;0.10;96181.00;;;;5001065;28;20810;-70
2023/11/27 06:12:50;;;;;;;5.40;2.53;;;;;0.40;96182.00;;;;5003120;28;20834;-72
2023/11/27 06:15:46;;;;;;;5.80;2.53;;;;;0.30;96176.00;;;;5004910;28;20427;-70
2023/11/27 06:18:35;;;;;;;7.40;3.20;;;;;0.30;96174.00;;;;5008983;28;20468;-70
2023/11/27 06:21:26;;;;;;;6.77;2.87;;;;;0.30;96182.00;;;;5006716;28;20422;-71
2023/11/27 06:24:15;;;;;;;9.07;3.70;;;;;0.50;96183.00;;;;5006595;28;20467;-70
2023/11/27 06:27:04;;;;;;;5.67;2.53;;;;;0.30;96178.00;;;;5005394;28;20426;-71
2023/11/27 06:29:53;;;;;;;12.80;4.83;;;;;0.70;96180.00;;;;5007110;28;20428;-69
2023/11/27 06:32:42;;;;;;;7.93;3.33;;;;;0.40;96179.00;;;;5006634;28;20449;-70
2023/11/27 06:35:32;;;;;;;6.07;2.73;;;;;0.40;96179.00;;;;5008424;28;21292;-70
2023/11/27 06:38:24;;;;;;;10.73;4.63;;;;;0.50;96172.00;;;;5009583;28;20450;-70
2023/11/27 06:41:13;;;;;;;10.67;4.37;;;;;0.30;96173.00;;;;5009149;28;20437;-70
2023/11/27 06:44:02;;;;;;;5.37;2.57;;;;;0.90;96178.00;;;;5003112;28;20453;-70
2023/11/27 06:46:51;;;;;;;5.50;2.50;;;;;1.30;96186.00;;;;5008525;28;20957;-68
2023/11/27 06:49:41;;;;;;;6.40;2.87;;;;;1.30;96187.00;;;;5007707;28;20801;-70
2023/11/27 06:52:30;;;;;;;5.73;2.60;;;;;0.70;96179.00;;;;5007907;28;20444;-70
2023/11/27 06:55:20;;;;;;;9.33;4.00;;;;;0.80;96188.00;;;;5009411;28;20451;-71
2023/11/27 06:58:09;;;;;;;11.40;4.83;;;;;1.10;96190.00;;;;5007338;28;20448;-69
2023/11/27 07:00:59;;;;;;;6.90;2.87;;;;;1.00;96191.00;;;;5005354;28;20444;-70
2023/11/27 07:03:48;;;;;;;8.13;3.47;;;;;0.70;96177.00;;;;5006311;28;20449;-71
2023/11/27 07:06:38;;;;;;;5.90;2.70;;;;;0.40;96169.00;;;;5003674;28;20920;-70
2023/11/27 07:09:28;;;;;;;5.07;2.40;;;;;0.80;96173.00;;;;4998347;28;20421;-70
2023/11/27 07:12:18;;;;;;;6.83;3.30;;;;;0.80;96171.00;;;;5005414;28;20417;-70
2023/11/27 07:15:10;;;;;;;6.97;3.33;;;;;1.00;96171.00;;;;5007323;28;20453;-70
2023/11/27 07:18:01;;;;;;;5.07;2.73;;;;;1.50;96160.00;;;;4999329;28;20439;-71
2023/11/27 07:20:53;;;;;;;4.17;2.27;;;;;1.80;96169.00;;;;5006869;28;20468;-70
2023/11/27 07:23:44;;;;;;;3.50;1.90;;;;;1.30;96172.00;;;;5004389;28;20452;-70
2023/11/27 07:26:33;;;;;;;4.60;2.17;;;;;1.10;96158.00;;;;5007073;28;20433;-71
2023/11/27 07:29:24;;;;;;;6.30;3.27;;;;;0.80;96158.00;;;;5007905;28;20430;-70
2023/11/27 07:32:15;;;;;;;7.33;3.50;;;;;0.90;96158.00;;;;5007871;28;20461;-71
2023/11/27 07:35:05;;;;;;;7.10;3.40;;;;;1.10;96155.00;;;;5006375;28;20473;-70
2023/11/27 07:37:54;;;;;;;4.10;1.93;;;;;1.00;96133.00;;;;5006929;28;20813;-70
2023/11/27 07:40:43;;;;;;;5.13;2.30;;;;;1.20;96146.00;;;;5005402;28;20841;-71
2023/11/27 07:43:32;;;;;;;5.03;2.33;;;;;1.40;96140.00;;;;5005330;28;20453;-70
2023/11/27 07:46:22;;;;;;;11.63;4.60;;;;;1.20;96144.00;;;;5005637;28;20449;-71
2023/11/27 07:49:13;;;;;;;12.33;4.73;;;;;1.20;96138.00;;;;5010301;28;20935;-71
2023/11/27 07:52:02;;;;;;;7.13;2.90;;;;;1.10;96130.00;;;;4999998;28;20426;-70
2023/11/27 07:54:52;;;;;;;7.33;2.93;;;;;0.90;96122.00;;;;5005367;28;20503;-71
2023/11/27 07:57:41;;;;;;;5.97;2.60;;;;;1.10;96130.00;;;;5004294;28;20428;-70
2023/11/27 08:00:31;;;;;;;4.37;2.00;;;;;1.70;96115.00;;;;5007231;28;20841;-70
2023/11/27 08:03:22;;;;;;;9.10;3.63;;;;;1.80;96120.00;;;;5007610;28;20430;-72
2023/11/27 08:06:11;;;;;;;8.30;3.57;;;;;1.50;96116.00;;;;5016986;28;20448;-71
2023/11/27 08:09:00;;;;;;;8.57;3.53;;;;;1.60;96105.00;;;;5008028;28;20448;-71
2023/11/27 08:11:50;;;;;;;8.63;3.53;;;;;1.40;96106.00;;;;5005900;28;20448;-71
2023/11/27 08:14:40;;;;;;;10.20;3.97;;;;;1.40;96114.00;;;;5003522;28;20552;-69
2023/11/27 08:17:29;;;;;;;6.73;2.60;;;;;1.30;96100.00;;;;4995753;28;20449;-71
2023/11/27 08:20:23;;;;;;;13.90;5.33;;;;;1.50;96100.00;;;;5007093;28;20481;-71
2023/11/27 08:23:12;;;;;;;11.87;4.67;;;;;1.80;96105.00;;;;5001352;28;20447;-71
2023/11/27 08:26:03;;;;;;;5.43;2.40;;;;;1.90;96115.00;;;;5010059;28;20804;-71
2023/11/27 08:28:52;;;;;;;9.93;4.03;;;;;1.90;96119.00;;;;5005044;28;20945;-70
2023/11/27 08:31:42;;;;;;;7.60;3.10;;;;;1.90;96108.00;;;;5009772;28;20440;-71
2023/11/27 08:34:33;;;;;;;5.17;2.37;;;;;2.20;96124.00;;;;5003660;28;20471;-70
2023/11/27 08:37:23;;;;;;;9.13;3.63;;;;;2.30;96116.00;;;;5006632;28;20422;-70
2023/11/27 08:40:13;;;;;;;9.50;3.70;;;;;2.50;96113.00;;;;5007095;28;21310;-72
2023/11/27 08:43:03;;;;;;;7.57;2.90;;;;;2.50;96107.00;;;;5003163;28;21383;-71
2023/11/27 08:45:53;;;;;;;5.70;2.57;;;;;2.50;96101.00;;;;5005158;28;20446;-70
2023/11/27 08:48:43;;;;;;;9.03;3.63;;;;;2.70;96098.00;;;;4997824;28;20441;-71
2023/11/27 08:51:32;;;;;;;10.83;4.23;;;;;3.30;96104.00;;;;4996160;28;20429;-69
2023/11/27 08:54:24;;;;;;;13.20;5.17;;;;;3.50;96104.00;;;;5005394;28;20529;-70
2023/11/27 08:57:13;;;;;;;11.30;4.43;;;;;3.80;96107.00;;;;5006912;28;20445;-71
2023/11/27 09:00:05;;;;;;;9.30;3.67;;;;;4.00;96106.00;;;;5005645;28;20479;-72
2023/11/27 09:02:54;;;;;;;6.07;2.53;;;;;4.30;96098.00;;;;5005999;28;20444;-71
2023/11/27 09:05:44;;;;;;;7.87;3.13;;;;;4.50;96098.00;;;;4999050;28;20450;-70
2023/11/27 09:08:33;;;;;;;10.03;3.80;;;;;4.70;96090.00;;;;5000624;28;20436;-70
2023/11/27 09:11:24;;;;;;;11.30;4.20;;;;;4.20;96100.00;;;;5006079;28;20436;-69
2023/11/27 09:14:14;;;;;;;13.67;5.17;;;;;4.00;96086.00;;;;5006582;28;20542;-70
2023/11/27 09:17:03;;;;;;;8.13;3.30;;;;;4.00;96087.00;;;;5002973;28;20947;-71
2023/11/27 09:19:53;;;;;;;9.30;3.43;;;;;4.20;96096.00;;;;5007976;28;20437;-70
2023/11/27 09:22:42;;;;;;;11.63;4.40;;;;;4.20;96092.00;;;;4996787;28;20206;-70
2023/11/27 09:25:31;;;;;;;6.07;2.57;;;;;4.50;96085.00;;;;5003824;28;20472;-70
2023/11/27 09:28:23;;;;;;;13.13;5.00;;;;;4.80;96088.00;;;;5001169;28;20439;-71
2023/11/27 09:31:15;;;;;;;15.33;5.73;;;;;4.50;96079.00;;;;5011708;28;20206;-70
2023/11/27 09:34:04;;;;;;;14.38;12.65;;;;;4.50;96078.00;;;;5004098;28;20397;-70
2023/11/27 09:36:54;;;;;;;46.42;43.72;;;;;5.20;96075.00;;;;5003494;28;20417;-70
2023/11/27 09:39:43;;;;;;;6.53;2.83;;;;;5.70;96081.00;;;;5015346;28;20210;-70
2023/11/27 09:42:35;;;;;;;8.27;3.53;;;;;6.10;96075.00;;;;5005002;28;20212;-71
2023/11/27 09:45:28;;;;;;;5.90;2.87;;;;;6.30;96077.00;;;;4999970;28;20229;-70
2023/11/27 09:48:18;;;;;;;16.77;6.33;;;;;6.40;96070.00;;;;5001116;28;20210;-71
2023/11/27 09:51:13;;;;;;;10.07;4.17;;;;;6.40;96063.00;;;;5006480;28;20207;-69
2023/11/27 09:54:06;;;;;;;10.80;4.50;;;;;6.00;96056.00;;;;5002139;28;20234;-71
2023/11/27 09:56:56;;;;;;;10.33;4.33;;;;;5.40;96050.00;;;;5004897;28;20202;-71
2023/11/27 09:59:45;;;;;;;5.00;2.13;;;;;6.30;96044.00;;;;5001168;28;20853;-71
2023/11/27 10:02:35;;;;;;;4.67;2.13;;;;;6.60;96035.00;;;;5004977;28;20209;-71
2023/11/27 10:05:25;;;;;;;13.40;5.50;;;;;6.90;96018.00;;;;5000850;28;20226;-71
2023/11/27 10:08:14;;;;;;;18.07;6.97;;;;;7.20;96007.00;;;;5007118;28;20213;-71
2023/11/27 10:11:04;;;;;;;6.77;3.10;;;;;7.60;96006.00;;;;5008103;28;20213;-70
2023/11/27 10:13:55;;;;;;;6.47;4.07;;;;;8.10;96009.00;;;;5022215;23;20237;-88
2023/11/27 10:16:47;;;;;;;12.27;8.23;;;;;8.70;95993.00;;;;4995764;28;20226;-88
2023/11/27 10:19:41;;;;;;;11.13;7.63;;;;;8.90;96007.00;;;;4994608;28;20202;-89
2023/11/27 10:22:32;;;;;;;26.23;22.60;;;;;8.30;95997.00;;;;4997470;28;20211;-87
2023/11/27 10:25:23;;;;;;;27.77;24.70;;;;;8.50;95986.00;;;;4992787;28;20227;-88
2023/11/27 10:28:13;;;;;;;21.03;12.70;;;;;8.70;95973.00;;;;4998763;28;20736;-88
2023/11/27 10:31:04;;;;;;;13.63;11.23;;;;;8.30;95971.00;;;;4993412;28;20198;-88
2023/11/27 10:33:53;;;;;;;5.57;2.30;;;;;9.40;95954.00;;;;5018230;28;20210;-89
2023/11/27 10:36:46;;;;;;;7.47;2.80;;;;;9.20;95965.00;;;;5008692;28;20218;-88
2023/11/27 10:39:37;;;;;;;7.83;2.90;;;;;9.80;95956.00;;;;5002832;28;20210;-88
2023/11/27 10:42:28;;;;;;;7.37;2.93;;;;;9.60;95944.00;;;;4998968;28;20229;-88
2023/11/27 10:45:19;;;;;;;13.83;4.90;;;;;9.60;95944.00;;;;5000931;28;20230;-88
2023/11/27 10:48:09;;;;;;;5.63;2.30;;;;;9.90;95948.00;;;;5002535;28;20198;-89
2023/11/27 10:51:03;;;;;;;8.30;3.13;;;;;10.00;95941.00;;;;4995927;28;20198;-88
2023/11/27 10:53:55;;;;;;;11.93;6.67;;;;;9.10;95937.00;;;;5000543;28;20242;-89
2023/11/27 10:56:46;;;;;;;15.77;14.90;;;;;9.50;95933.00;;;;4990389;28;20245;-88
2023/11/27 10:59:40;;;;;;;19.50;17.77;;;;;8.90;95931.00;;;;4999801;28;20203;-88
2023/11/27 11:02:29;;;;;;;22.60;20.77;;;;;8.80;95925.00;;;;4999800;28;20235;-88
2023/11/27 11:05:26;;;;;;;31.60;28.47;;;;;9.00;95916.00;;;;5000141;28;20261;-89
2023/11/27 11:08:16;;;;;;;29.00;26.10;;;;;9.00;95915.00;;;;5001320;28;20219;-89
2023/11/27 11:11:07;;;;;;;36.90;33.97;;;;;8.90;95900.00;;;;4988963;28;20575;-87
2023/11/27 11:13:57;;;;;;;37.10;34.07;;;;;9.20;95869.00;;;;4996761;28;20215;-88
2023/11/27 11:16:55;;;;;;;51.47;46.90;;;;;9.30;95857.00;;;;4997014;28;20699;-88
2023/11/27 11:19:55;;;;;;;47.53;39.43;;;;;9.00;95869.00;;;;4992428;28;20739;-88
2023/11/27 11:22:52;;;;;;;22.13;19.87;;;;;9.30;95872.00;;;;4996568;28;20227;-87
2023/11/27 11:25:46;;;;;;;32.83;30.27;;;;;8.80;95869.00;;;;4992308;28;20226;-88
2023/11/27 11:28:48;;;;;;;29.13;26.07;;;;;8.40;95852.00;;;;4994690;28;20194;-88
2023/11/27 11:31:48;;;;;;;41.53;37.50;;;;;7.90;95852.00;;;;4996517;28;20202;-89
2023/11/27 11:34:39;;;;;;;35.77;33.00;;;;;7.80;95838.00;;;;4995630;28;20213;-88
2023/11/27 11:37:32;;;;;;;26.07;22.77;;;;;8.40;95840.00;;;;4993693;28;20357;-89
2023/11/27 11:40:35;;;;;;;37.10;33.80;;;;;8.00;95843.00;;;;4994565;28;20206;-88
2023/11/27 11:43:26;;;;;;;38.93;35.23;;;;;8.70;95840.00;;;;4995674;28;20205;-88
2023/11/27 11:46:20;;;;;;;45.17;40.67;;;;;8.80;95843.00;;;;4993331;28;20234;-88
2023/11/27 11:49:12;;;;;;;40.50;37.07;;;;;8.80;95830.00;;;;4991522;28;20214;-87
2023/11/27 11:52:03;;;;;;;45.63;41.57;;;;;9.50;95837.00;;;;4992933;28;20206;-87
2023/11/27 11:54:56;;;;;;;50.10;45.93;;;;;9.70;95830.00;;;;4995845;28;20563;-88
2023/11/27 11:57:45;;;;;;;54.23;49.70;;;;;10.50;95833.00;;;;4993167;28;20203;-88
2023/11/27 12:00:43;;;;;;;68.03;61.67;;;;;10.70;95834.00;;;;4988507;28;20203;-88
2023/11/27 12:03:36;;;;;;;66.20;60.10;;;;;10.80;95838.00;;;;4981004;28;20676;-89
2023/11/27 12:06:26;;;;;;;92.63;82.30;;;;;10.80;95820.00;;;;4990418;28;20239;-89
2023/11/27 12:09:17;;;;;;;115.10;92.50;;;;;11.50;95824.00;;;;4990869;28;20202;-89
2023/11/27 12:12:07;;;;;;;140.00;101.93;;;;;12.20;95817.00;;;;4988238;28;20223;-88
2023/11/27 12:14:56;;;;;;;178.53;112.63;;;;;12.70;95807.00;;;;4991458;28;20218;-89
2023/11/27 12:17:48;;;;;;;217.33;122.03;;;;;13.20;95823.00;;;;4987184;28;20203;-90
2023/11/27 12:20:42;;;;;;;235.20;127.80;;;;;12.70;95816.00;;;;4988773;28;20703;-90
2023/11/27 12:23:32;;;;;;;216.63;191.03;;;;;12.10;95815.00;;;;4994157;28;20286;-89
2023/11/27 12:26:37;;;;;;;8.70;4.10;;;;;11.50;95806.00;;;;4992158;28;20225;-89
2023/11/27 12:29:28;;;;;;;16.07;5.83;;;;;12.00;95796.00;;;;4989413;28;20211;-90
2023/11/27 12:32:19;;;;;;;15.77;5.53;;;;;10.00;95790.00;;;;4985084;28;20238;-88
2023/11/27 12:35:14;;;;;;;10.97;4.00;;;;;9.50;95764.00;;;;4988442;28;20226;-89
2023/11/27 12:38:05;;;;;;;11.13;4.63;;;;;8.60;95787.00;;;;4988534;28;20230;-89
2023/11/27 12:40:56;;;;;;;213.70;118.10;;;;;9.20;95775.00;;;;4985758;28;20261;-88
2023/11/27 12:43:45;;;;;;;190.33;109.90;;;;;9.10;95775.00;;;;4988829;28;20660;-88
2023/11/27 12:46:34;;;;;;;113.13;91.60;;;;;8.70;95765.00;;;;4990037;28;20226;-88
2023/11/27 12:49:24;;;;;;;131.83;98.87;;;;;8.10;95771.00;;;;4985563;28;20210;-87
2023/11/27 12:52:14;;;;;;;111.37;89.33;;;;;8.20;95758.00;;;;4981916;28;20223;-87
2023/11/27 12:55:07;;;;;;;108.53;85.33;;;;;7.80;95748.00;;;;4990603;28;20723;-87
2023/11/27 12:57:56;;;;;;;105.10;78.73;;;;;8.00;95740.00;;;;4990221;28;20202;-89
2023/11/27 13:00:46;;;;;;;111.17;82.03;;;;;8.20;95742.00;;;;4996797;28;20198;-89
2023/11/27 13:03:35;;;;;;;96.33;74.73;;;;;8.40;95728.00;;;;5000634;28;20189;-89
2023/11/27 13:06:27;;;;;;;105.50;76.93;;;;;7.40;95735.00;;;;4998595;28;20233;-88
2023/11/27 13:09:18;;;;;;;96.93;71.47;;;;;7.20;95724.00;;;;4995164;28;20674;-89
2023/11/27 13:12:20;;;;;;;95.03;68.90;;;;;7.30;95719.00;;;;4991783;28;20223;-89
2023/11/27 13:15:11;;;;;;;97.10;69.53;;;;;7.40;95711.00;;;;4991499;28;20234;-91
2023/11/27 13:18:02;;;;;;;92.67;66.60;;;;;7.30;95701.00;;;;4993932;28;20533;-89
2023/11/27 13:20:53;;;;;;;91.70;64.70;;;;;6.70;95704.00;;;;5013231;28;20194;-93
2023/11/27 13:23:42;;;;;;;86.73;63.77;;;;;6.60;95714.00;;;;4995520;28;20206;-89
2023/11/27 13:26:35;;;;;;;86.90;63.23;;;;;7.50;95703.00;;;;4984888;28;20226;-89
2023/11/27 13:29:27;;;;;;;103.10;70.93;;;;;7.40;95695.00;;;;4989409;28;20550;-90
2023/11/27 13:32:17;;;;;;;107.30;74.60;;;;;6.90;95692.00;;;;4990522;28;20578;-91
2023/11/27 13:35:07;;;;;;;106.73;69.77;;;;;7.30;95684.00;;;;4990768;28;20229;-90
2023/11/27 13:38:00;;;;;;;104.60;68.47;;;;;7.30;95683.00;;;;4986745;28;20206;-89
2023/11/27 13:40:51;;;;;;;109.87;69.03;;;;;7.00;95682.00;;;;4980813;28;20695;-90
2023/11/27 13:43:41;;;;;;;113.07;68.10;;;;;6.30;95666.00;;;;4984191;28;20213;-89
2023/11/27 13:46:33;;;;;;;118.90;73.67;;;;;6.50;95664.00;;;;4988928;28;20718;-90
2023/11/27 13:49:25;;;;;;;134.07;79.00;;;;;6.50;95662.00;;;;4989180;28;20458;-90
2023/11/27 13:52:15;;;;;;;66.27;38.40;;;;;6.80;95661.00;;;;4987498;28;20229;-90
2023/11/27 13:55:09;;;;;;;7.97;3.23;;;;;6.60;95661.00;;;;4990689;28;20245;-90
2023/11/27 13:57:59;;;;;;;5.43;2.47;;;;;6.20;95656.00;;;;4986325;28;20203;-90
2023/11/27 14:00:49;;;;;;;4.13;2.03;;;;;6.10;95650.00;;;;4986038;28;20594;-90
2023/11/27 14:03:41;;;;;;;4.70;2.27;;;;;6.30;95635.00;;;;4979591;28;20199;-90
2023/11/27 14:06:31;;;;;;;163.13;82.50;;;;;6.30;95642.00;;;;4989467;28;20273;-89
2023/11/27 14:12:38;;;;;;;9.33;3.77;;;;;5.50;95634.00;;;;4989227;28;20230;-89
2023/11/27 14:15:37;;;;;;;11.93;4.67;;;;;6.50;95633.00;;;;4988145;28;20230;-88
2023/11/27 14:18:49;;;;;;;12.17;4.80;;;;;6.50;95638.00;;;;4991180;28;20589;-88